Time;durP1;ratioP1;P1;durP2;ratioP2;P2;SDS_P1;SDS_P2;PMS_P1;PMS_P2;Temp;Humidity;BMP_temperature;BMP_pressure;BME280_temperature;BME280_humidity;BME280_pressure;Samples;Min_cycle;Max_cycle;Signal;HPM_P1;HPM_P2
2021/09/25 00:02:24;;;;;;;;;19.25;18.50;;;;;22.98;51.12;100847.13;6169733;22;45292;-76
2021/09/25 00:04:49;;;;;;;;;17.25;16.00;;;;;22.89;51.67;100838.63;6220672;22;45268;-76
2021/09/25 00:07:15;;;;;;;;;19.00;17.25;;;;;22.89;51.40;100844.81;6221088;22;45376;-76
2021/09/25 00:09:40;;;;;;;;;18.75;15.25;;;;;22.82;51.36;100833.53;6248039;22;45358;-76
2021/09/25 00:12:10;;;;;;;;;20.25;17.75;;;;;22.90;51.81;100837.72;6220882;22;45197;-76
2021/09/25 00:14:37;;;;;;;;;20.50;18.50;;;;;22.91;51.43;100842.97;6245713;22;46269;-77
2021/09/25 00:17:04;;;;;;;;;26.50;20.25;;;;;22.85;51.84;100829.94;6220569;22;45248;-77
2021/09/25 00:19:29;;;;;;;;;21.25;19.00;;;;;22.94;51.51;100839.34;6220433;22;45671;-76
2021/09/25 00:21:56;;;;;;;;;17.25;16.75;;;;;22.87;51.26;100828.06;6220100;22;45415;-77
2021/09/25 00:24:22;;;;;;;;;17.75;16.00;;;;;22.92;51.39;100833.19;6220875;22;48121;-76
2021/09/25 00:26:47;;;;;;;;;16.25;15.75;;;;;22.95;51.50;100843.72;6195141;22;45173;-76
2021/09/25 00:29:13;;;;;;;;;18.00;18.00;;;;;22.82;51.31;100828.19;6221210;22;45552;-76
2021/09/25 00:31:39;;;;;;;;;14.75;13.75;;;;;22.83;50.90;100835.25;6221243;22;45191;-76
2021/09/25 00:34:04;;;;;;;;;20.00;19.00;;;;;22.85;50.79;100843.22;6246996;22;45264;-76
2021/09/25 00:36:29;;;;;;;;;19.75;18.25;;;;;22.78;50.57;100841.69;6220411;22;55749;-76
2021/09/25 00:38:55;;;;;;;;;19.50;18.75;;;;;22.70;50.92;100834.03;6247572;22;45867;-76
2021/09/25 00:41:21;;;;;;;;;16.00;14.00;;;;;22.72;50.99;100836.63;6247530;22;45609;-76
2021/09/25 00:43:46;;;;;;;;;18.00;16.00;;;;;22.67;51.12;100841.25;6220669;22;47036;-75
2021/09/25 00:46:15;;;;;;;;;18.25;16.75;;;;;22.63;51.15;100831.66;6219776;22;55069;-75
2021/09/25 00:48:41;;;;;;;;;18.25;18.25;;;;;22.61;50.95;100836.19;6195593;22;45207;-76
2021/09/25 00:51:06;;;;;;;;;16.75;16.00;;;;;22.68;50.72;100845.66;6195180;22;45193;-76
2021/09/25 00:53:32;;;;;;;;;16.25;14.25;;;;;22.58;50.92;100819.38;6220776;22;47526;-77
2021/09/25 00:55:57;;;;;;;;;18.50;16.75;;;;;22.66;50.92;100832.38;6195085;22;51033;-78
2021/09/25 00:58:22;;;;;;;;;15.75;15.50;;;;;22.76;50.98;100847.09;6195557;22;45264;-77
2021/09/25 01:00:48;;;;;;;;;14.75;14.75;;;;;22.77;51.18;100854.13;6219652;22;56021;-77
2021/09/25 01:03:13;;;;;;;;;17.25;14.50;;;;;22.73;50.77;100841.00;6218971;22;65221;-76
2021/09/25 01:05:41;;;;;;;;;19.50;16.00;;;;;22.68;50.59;100837.69;6247208;22;45196;-76
2021/09/25 01:08:06;;;;;;;;;17.50;15.75;;;;;22.69;51.21;100847.38;6220861;22;45292;-75
2021/09/25 01:10:32;;;;;;;;;21.00;18.50;;;;;22.62;50.72;100841.44;6247109;22;50576;-75
2021/09/25 01:12:57;;;;;;;;;16.00;15.25;;;;;22.65;50.85;100843.97;6195348;22;45346;-76
2021/09/25 01:15:23;;;;;;;;;21.00;17.75;;;;;22.64;50.99;100842.22;6194375;22;55158;-76
2021/09/25 01:17:48;;;;;;;;;19.25;17.25;;;;;22.53;50.78;100823.16;6220385;22;45283;-75
2021/09/25 01:20:14;;;;;;;;;15.00;14.25;;;;;22.51;50.86;100812.59;6219694;22;45343;-76
2021/09/25 01:22:39;;;;;;;;;18.75;18.75;;;;;22.60;51.08;100835.31;6219656;22;47174;-76
2021/09/25 01:25:05;;;;;;;;;17.00;15.50;;;;;22.53;51.15;100816.06;6246814;22;53362;-75
2021/09/25 01:27:31;;;;;;;;;19.00;16.50;;;;;22.55;50.97;100822.19;6220652;22;45224;-75
2021/09/25 01:29:56;;;;;;;;;17.50;15.00;;;;;22.53;51.00;100817.84;6244656;22;55136;-75
2021/09/25 01:32:22;;;;;;;;;22.75;17.50;;;;;22.44;51.18;100813.75;6194506;22;46013;-75
2021/09/25 01:34:47;;;;;;;;;17.25;17.25;;;;;22.47;51.45;100808.31;6247076;22;45288;-75
2021/09/25 01:37:12;;;;;;;;;17.75;15.50;;;;;22.47;51.23;100810.09;6247864;22;45154;-75
2021/09/25 01:39:38;;;;;;;;;19.50;15.75;;;;;22.48;51.22;100807.38;6219374;22;45825;-75
2021/09/25 01:42:04;;;;;;;;;21.00;18.50;;;;;22.42;51.36;100812.09;6219607;22;46921;-77
2021/09/25 01:44:30;;;;;;;;;18.25;16.50;;;;;22.32;51.12;100789.41;6247396;22;45243;-77
2021/09/25 01:46:56;;;;;;;;;17.00;16.00;;;;;22.28;52.05;100799.31;6221537;22;45295;-77
2021/09/25 01:49:21;;;;;;;;;19.25;15.50;;;;;22.29;51.53;100790.41;6248090;22;45431;-74
2021/09/25 01:51:47;;;;;;;;;17.25;15.25;;;;;22.32;51.99;100798.25;6196284;22;45443;-75
2021/09/25 01:54:15;;;;;;;;;17.75;17.75;;;;;22.39;51.69;100806.88;6248492;22;45193;-76
2021/09/25 01:56:40;;;;;;;;;16.75;16.50;;;;;22.37;51.72;100801.63;6248725;22;45246;-76
2021/09/25 01:59:06;;;;;;;;;15.00;15.00;;;;;22.35;51.93;100802.59;6221670;22;45238;-76
2021/09/25 02:01:31;;;;;;;;;16.75;15.25;;;;;22.30;51.61;100792.13;6221528;22;45969;-76
2021/09/25 02:03:57;;;;;;;;;18.75;17.75;;;;;22.31;51.60;100788.53;6221189;22;45155;-75
2021/09/25 02:06:22;;;;;;;;;23.00;17.25;;;;;22.40;52.17;100790.84;6248065;22;57571;-76
2021/09/25 02:08:47;;;;;;;;;18.25;15.75;;;;;22.39;52.25;100786.47;6246531;22;45189;-76
2021/09/25 02:11:13;;;;;;;;;16.50;14.75;;;;;22.39;52.03;100780.28;6221208;22;47106;-78
2021/09/25 02:13:38;;;;;;;;;17.00;15.00;;;;;22.37;52.38;100782.13;6248647;22;45257;-76
2021/09/25 02:16:04;;;;;;;;;16.00;15.75;;;;;22.35;51.83;100771.56;6196214;22;45211;-78
2021/09/25 02:18:29;;;;;;;;;18.25;15.00;;;;;22.42;52.23;100789.03;6248508;22;45269;-78
2021/09/25 02:20:55;;;;;;;;;16.75;15.00;;;;;22.35;51.52;100768.03;6247602;22;60613;-78
2021/09/25 02:23:20;;;;;;;;;15.00;14.25;;;;;22.42;52.17;100783.69;6248650;22;45308;-78
2021/09/25 02:25:46;;;;;;;;;16.25;13.25;;;;;22.37;51.42;100772.38;6196460;22;45293;-78
2021/09/25 02:28:11;;;;;;;;;16.00;16.00;;;;;22.33;51.84;100775.19;6247951;22;56276;-78
2021/09/25 02:30:36;;;;;;;;;16.00;13.25;;;;;22.29;52.36;100769.13;6248309;22;45926;-78
2021/09/25 02:33:02;;;;;;;;;17.25;16.00;;;;;22.32;52.32;100782.31;6221026;22;48185;-78
2021/09/25 02:35:27;;;;;;;;;15.75;13.50;;;;;22.28;52.26;100772.72;6221104;22;45375;-75
2021/09/25 02:37:53;;;;;;;;;19.00;17.25;;;;;22.29;51.87;100783.28;6248318;22;45241;-78
2021/09/25 02:40:19;;;;;;;;;14.25;13.25;;;;;22.30;52.26;100786.81;6195733;22;47712;-78
2021/09/25 02:42:45;;;;;;;;;18.00;15.25;;;;;22.19;52.09;100775.75;6221253;22;45253;-78
2021/09/25 02:45:11;;;;;;;;;19.75;14.50;;;;;22.25;52.37;100780.81;6221584;22;45257;-78
2021/09/25 02:47:37;;;;;;;;;17.75;14.75;;;;;22.21;52.34;100771.22;6221332;22;45479;-78
2021/09/25 02:50:03;;;;;;;;;23.25;17.75;;;;;22.16;51.82;100762.56;6221068;22;46065;-78
2021/09/25 02:52:29;;;;;;;;;15.00;14.00;;;;;22.10;52.63;100761.00;6195975;22;45128;-78
2021/09/25 02:54:54;;;;;;;;;17.75;17.75;;;;;22.06;52.72;100750.50;6248817;22;45149;-78
2021/09/25 02:57:19;;;;;;;;;16.50;16.25;;;;;22.09;52.65;100766.38;6195226;22;55553;-78
2021/09/25 02:59:45;;;;;;;;;13.25;10.00;;;;;22.05;52.83;100759.41;6247834;22;58574;-78
2021/09/25 03:02:10;;;;;;;;;19.50;16.25;;;;;22.13;52.39;100781.28;6220235;22;45327;-75
2021/09/25 03:04:36;;;;;;;;;20.75;17.25;;;;;22.15;52.74;100766.13;6220556;22;52453;-78
2021/09/25 03:07:01;;;;;;;;;16.75;15.75;;;;;22.19;52.53;100762.44;6247409;22;60129;-75
2021/09/25 03:09:27;;;;;;;;;18.00;14.75;;;;;22.21;52.76;100765.91;6195896;22;46107;-78
2021/09/25 03:11:52;;;;;;;;;21.00;20.50;;;;;22.12;52.74;100752.97;6248620;22;45367;-75
2021/09/25 03:14:17;;;;;;;;;16.75;15.50;;;;;22.08;52.88;100754.88;6246698;22;45229;-78
2021/09/25 03:16:43;;;;;;;;;18.50;17.00;;;;;22.09;52.86;100755.75;6245460;22;54228;-75
2021/09/25 03:19:08;;;;;;;;;20.50;17.75;;;;;22.08;52.91;100756.69;6247149;22;59123;-78
2021/09/25 03:21:34;;;;;;;;;16.00;16.00;;;;;22.07;52.33;100757.56;6221012;22;45311;-78
2021/09/25 03:23:59;;;;;;;;;20.00;19.00;;;;;22.12;52.77;100767.13;6248365;22;45258;-77
2021/09/25 03:26:24;;;;;;;;;17.50;14.00;;;;;22.12;52.63;100771.56;6248124;22;45400;-77
2021/09/25 03:28:50;;;;;;;;;21.50;19.75;;;;;22.11;52.88;100759.22;6195763;22;45291;-75
2021/09/25 03:31:15;;;;;;;;;18.00;17.75;;;;;22.02;52.76;100749.75;6248422;22;45169;-77
2021/09/25 03:33:41;;;;;;;;;15.00;15.00;;;;;22.10;52.91;100766.31;6248229;22;45122;-75
2021/09/25 03:36:06;;;;;;;;;17.50;17.25;;;;;;;;6247998;22;45378;-78
2021/09/25 03:38:31;;;;;;;;;20.25;19.75;;;;;22.05;52.96;100749.63;6246899;22;45252;-78
2021/09/25 03:40:57;;;;;;;;;19.50;15.25;;;;;22.04;52.69;100747.03;6220448;22;45402;-77
2021/09/25 03:43:24;;;;;;;;;20.50;18.00;;;;;22.12;52.47;100751.16;6247952;22;45165;-77
2021/09/25 03:45:49;;;;;;;;;16.25;16.00;;;;;22.04;52.81;100737.28;6247696;22;53716;-75
2021/09/25 03:48:15;;;;;;;;;17.75;15.50;;;;;22.05;53.13;100738.13;6220353;22;59894;-78
2021/09/25 03:50:40;;;;;;;;;23.00;20.75;;;;;22.04;52.49;100736.41;6220377;22;45805;-78
2021/09/25 03:53:06;;;;;;;;;24.00;18.50;;;;;22.07;53.11;100746.94;6248463;22;45280;-77
2021/09/25 03:55:31;;;;;;;;;21.50;17.50;;;;;22.02;53.11;100736.47;6248246;22;45549;-78
2021/09/25 03:57:57;;;;;;;;;21.50;20.75;;;;;22.00;52.49;100736.53;6248143;22;45223;-78
2021/09/25 04:00:23;;;;;;;;;18.75;17.75;;;;;22.05;52.98;100746.13;6221255;22;45325;-78
2021/09/25 04:02:50;;;;;;;;;20.50;17.25;;;;;22.04;53.46;100753.22;6220850;22;45431;-78
2021/09/25 04:05:19;;;;;;;;;20.50;18.25;;;;;22.08;52.84;100751.38;6220442;22;45490;-78
2021/09/25 04:07:45;;;;;;;;;17.50;17.50;;;;;22.06;52.89;100756.69;6247355;22;45601;-78
2021/09/25 04:10:11;;;;;;;;;22.50;20.50;;;;;22.00;53.12;100748.97;6247987;22;45382;-78
2021/09/25 04:12:36;;;;;;;;;20.75;18.50;;;;;21.97;52.89;100747.25;6221284;22;45452;-78
2021/09/25 04:15:02;;;;;;;;;21.75;19.75;;;;;22.02;53.26;100753.28;6221008;22;45283;-78
2021/09/25 04:17:28;;;;;;;;;23.75;19.75;;;;;22.03;52.96;100751.50;6247645;22;46222;-76
2021/09/25 04:19:53;;;;;;;;;22.50;19.50;;;;;22.07;52.84;100753.16;6220688;22;45351;-77
2021/09/25 04:22:18;;;;;;;;;20.00;17.75;;;;;22.02;53.26;100742.66;6247790;22;46841;-77
2021/09/25 04:24:44;;;;;;;;;20.25;18.75;;;;;22.00;53.08;100733.00;6220912;22;45442;-77
2021/09/25 04:27:10;;;;;;;;;19.00;16.25;;;;;22.00;53.07;100728.56;6220167;22;47422;-77
2021/09/25 04:29:35;;;;;;;;;19.50;18.00;;;;;22.00;53.17;100730.34;6220262;22;45184;-77
2021/09/25 04:32:01;;;;;;;;;22.75;21.00;;;;;22.00;53.24;100735.66;6247761;22;45161;-77
2021/09/25 04:34:26;;;;;;;;;22.25;20.75;;;;;22.04;52.84;100744.38;6247489;22;45473;-78
2021/09/25 04:36:52;;;;;;;;;23.00;20.50;;;;;21.98;52.95;100735.72;6247624;22;45839;-77
2021/09/25 04:39:17;;;;;;;;;18.25;18.25;;;;;22.02;53.36;100750.63;6220137;22;54835;-77
2021/09/25 04:41:42;;;;;;;;;20.25;18.50;;;;;21.93;53.12;100723.53;6247579;22;45251;-76
2021/09/25 04:44:14;;;;;;;;;24.00;21.00;;;;;21.92;52.62;100732.44;6247365;22;55163;-77
2021/09/25 04:46:39;;;;;;;;;22.75;22.00;;;;;21.89;52.93;100738.75;6221605;22;46086;-78
2021/09/25 04:49:04;;;;;;;;;18.25;16.75;;;;;21.95;53.37;100740.28;6247192;22;45361;-78
2021/09/25 04:51:30;;;;;;;;;19.75;18.25;;;;;21.88;52.95;100734.31;6247095;22;53593;-77
2021/09/25 04:53:56;;;;;;;;;19.00;15.75;;;;;21.82;53.57;100731.91;6246974;22;56321;-77
2021/09/25 04:56:22;;;;;;;;;23.50;19.00;;;;;21.82;53.33;100721.28;6220843;22;45912;-77
2021/09/25 04:58:47;;;;;;;;;25.25;25.00;;;;;21.87;53.38;100729.06;6220527;22;53622;-76
2021/09/25 05:01:13;;;;;;;;;20.25;19.50;;;;;21.88;53.64;100726.34;6220523;22;46061;-77
2021/09/25 05:03:39;;;;;;;;;18.75;18.00;;;;;21.87;53.33;100721.09;6247341;22;45117;-80
2021/09/25 05:06:04;;;;;;;;;25.75;21.75;;;;;21.89;53.75;100736.09;6220404;22;45277;-72
2021/09/25 05:08:30;;;;;;;;;21.75;20.25;;;;;21.89;53.53;100728.13;6222192;22;45223;-76
2021/09/25 05:10:55;;;;;;;;;23.00;20.50;;;;;21.90;53.60;100732.50;6220748;22;45253;-75
2021/09/25 05:13:20;;;;;;;;;26.50;22.50;;;;;22.04;54.30;100742.59;6247519;22;45249;-72
2021/09/25 05:15:46;;;;;;;;;29.50;26.25;;;;;22.14;57.41;100735.16;6219990;22;57346;-74
2021/09/25 05:18:11;;;;;;;;;26.75;24.25;;;;;22.32;56.32;100742.41;6244270;22;57903;-72
2021/09/25 05:20:36;;;;;;;;;24.75;23.50;;;;;22.45;55.51;100738.34;6245816;22;50984;-72
2021/09/25 05:23:02;;;;;;;;;27.50;26.00;;;;;22.55;55.30;100737.06;6195325;22;60469;-72
2021/09/25 05:25:27;;;;;;;;;21.00;20.00;;;;;22.67;53.98;100738.34;6221934;22;45366;-72
2021/09/25 05:27:53;;;;;;;;;26.25;22.75;;;;;22.72;54.16;100730.19;6248898;22;45240;-72
2021/09/25 05:30:18;;;;;;;;;22.75;21.25;;;;;22.81;54.17;100730.66;6248227;22;55367;-72
2021/09/25 05:32:43;;;;;;;;;30.25;23.75;;;;;22.82;53.56;100718.22;6221085;22;56725;-75
2021/09/25 05:35:09;;;;;;;;;25.25;23.50;;;;;22.83;53.24;100727.94;6221370;22;45374;-73
2021/09/25 05:37:34;;;;;;;;;26.00;21.25;;;;;22.81;53.06;100730.66;6248543;22;45347;-75
2021/09/25 05:40:00;;;;;;;;;25.00;22.50;;;;;22.78;53.40;100733.47;6245254;22;54210;-75
2021/09/25 05:42:25;;;;;;;;;28.75;25.25;;;;;22.73;52.64;100727.44;6248412;22;45264;-77
2021/09/25 05:44:53;;;;;;;;;25.00;22.75;;;;;22.55;53.25;100706.94;6248458;22;46256;-75
2021/09/25 05:47:19;;;;;;;;;27.25;25.75;;;;;22.61;53.41;100732.44;6222040;22;45161;-75
2021/09/25 05:49:46;;;;;;;;;25.00;23.75;;;;;22.54;54.22;100732.66;6195134;22;56988;-76
2021/09/25 05:52:11;;;;;;;;;31.25;26.75;;;;;22.48;54.34;100727.59;6197382;22;45287;-75
2021/09/25 05:54:37;;;;;;;;;31.50;27.50;;;;;22.50;54.76;100733.72;6221067;22;47063;-75
2021/09/25 05:57:03;;;;;;;;;26.00;24.25;;;;;22.48;55.09;100732.91;6196226;22;45396;-75
2021/09/25 05:59:28;;;;;;;;;30.00;25.50;;;;;22.34;54.93;100721.97;6248713;22;45296;-73
2021/09/25 06:01:54;;;;;;;;;27.75;25.25;;;;;22.42;55.56;100724.34;6248663;22;45423;-75
2021/09/25 06:04:20;;;;;;;;;28.50;25.25;;;;;22.51;54.71;100731.94;6247807;22;57082;-75
2021/09/25 06:06:45;;;;;;;;;22.75;21.25;;;;;22.47;54.71;100733.84;6248757;22;45201;-75
2021/09/25 06:09:10;;;;;;;;;28.75;25.75;;;;;22.41;54.28;100739.38;6222009;22;45776;-75
2021/09/25 06:11:36;;;;;;;;;25.75;23.75;;;;;22.36;54.47;100737.84;6248617;22;45138;-76
2021/09/25 06:14:01;;;;;;;;;33.75;28.00;;;;;22.36;54.31;100741.38;6247942;22;57969;-76
2021/09/25 06:16:26;;;;;;;;;27.75;26.50;;;;;22.29;54.96;100737.22;6248566;22;48944;-75
2021/09/25 06:18:52;;;;;;;;;31.50;26.00;;;;;22.25;55.25;100733.84;6195616;22;45258;-75
2021/09/25 06:21:21;;;;;;;;;25.00;24.25;;;;;22.26;54.81;100734.69;6248466;22;45220;-75
2021/09/25 06:23:46;;;;;;;;;29.00;27.25;;;;;22.31;55.48;100750.44;6195277;22;46827;-75
2021/09/25 06:26:12;;;;;;;;;27.75;26.00;;;;;22.30;55.69;100738.97;6195379;22;45272;-75
2021/09/25 06:28:38;;;;;;;;;33.50;28.00;;;;;22.28;55.15;100746.13;6196582;22;45202;-75
2021/09/25 06:31:03;;;;;;;;;29.75;26.75;;;;;22.25;55.12;100746.25;6195903;22;45227;-75
2021/09/25 06:33:29;;;;;;;;;30.25;28.25;;;;;22.26;54.98;100738.22;6195777;22;45948;-75
2021/09/25 06:35:54;;;;;;;;;33.00;29.75;;;;;22.24;54.45;100729.44;6221005;22;45305;-76
2021/09/25 06:38:23;;;;;;;;;25.25;24.75;;;;;22.28;55.22;100725.72;6195150;22;45256;-78
2021/09/25 06:40:49;;;;;;;;;28.00;22.75;;;;;22.44;54.96;100743.75;6220448;22;45633;-75
2021/09/25 06:43:14;;;;;;;;;32.00;28.25;;;;;22.44;54.07;100741.94;6195891;22;45243;-75
2021/09/25 06:45:40;;;;;;;;;29.00;25.00;;;;;22.46;54.25;100740.09;6195405;22;45182;-75
2021/09/25 06:48:05;;;;;;;;;18.50;16.00;;;;;22.34;53.94;100718.44;6221510;22;45263;-76
2021/09/25 06:50:31;;;;;;;;;31.50;25.25;;;;;22.44;53.44;100731.31;6248002;22;45340;-75
2021/09/25 06:52:56;;;;;;;;;28.75;26.75;;;;;22.41;53.76;100731.41;6245355;22;68795;-75
2021/09/25 06:55:22;;;;;;;;;26.00;23.50;;;;;22.36;53.54;100717.44;6221318;22;45394;-75
2021/09/25 06:57:47;;;;;;;;;28.75;27.50;;;;;22.41;53.52;100723.44;6221349;22;45283;-75
2021/09/25 07:00:13;;;;;;;;;28.50;23.25;;;;;22.43;52.71;100720.75;6248223;22;45347;-75
2021/09/25 07:02:38;;;;;;;;;27.50;26.75;;;;;22.49;52.86;100724.00;6220365;22;47277;-75
2021/09/25 07:05:05;;;;;;;;;27.75;25.75;;;;;22.52;52.84;100723.88;6220520;22;45617;-75
2021/09/25 07:07:33;;;;;;;;;33.50;28.50;;;;;22.56;52.80;100727.28;6247892;22;45314;-75
2021/09/25 07:10:08;;;;;;;;;37.25;31.00;;;;;22.57;52.56;100707.72;6221005;22;45230;-76
2021/09/25 07:12:34;;;;;;;;;31.50;26.25;;;;;22.55;52.93;100707.78;6196023;22;46847;-74
2021/09/25 07:14:59;;;;;;;;;28.25;26.75;;;;;22.72;52.63;100719.53;6248134;22;45169;-73
2021/09/25 07:17:25;;;;;;;;;26.50;24.75;;;;;22.64;52.65;100701.22;6247497;22;56645;-76
2021/09/25 07:19:53;;;;;;;;;26.25;22.00;;;;;22.76;52.71;100719.38;6220053;22;54297;-76
2021/09/25 07:22:18;;;;;;;;;22.75;22.75;;;;;22.84;52.66;100730.56;6220429;22;47413;-73
2021/09/25 07:24:44;;;;;;;;;27.50;26.50;;;;;22.89;51.99;100730.38;6248085;22;45248;-76
2021/09/25 07:27:09;;;;;;;;;28.75;26.25;;;;;22.91;52.25;100719.66;6247773;22;49960;-76
2021/09/25 07:29:35;;;;;;;;;25.75;25.00;;;;;22.95;51.80;100722.16;6220953;22;45231;-76
2021/09/25 07:32:00;;;;;;;;;32.25;27.75;;;;;23.00;52.10;100720.13;6245903;22;47449;-76
2021/09/25 07:34:27;;;;;;;;;29.75;26.75;;;;;23.03;51.53;100711.19;6247860;22;45391;-76
2021/09/25 07:36:52;;;;;;;;;30.50;28.00;;;;;22.98;51.03;100703.38;6220856;22;45274;-76
2021/09/25 07:39:18;;;;;;;;;24.75;24.25;;;;;23.11;51.47;100717.03;6195937;22;45174;-75
2021/09/25 07:41:43;;;;;;;;;31.25;29.50;;;;;23.10;51.40;100705.50;6220091;22;56273;-76
2021/09/25 07:44:08;;;;;;;;;29.25;25.00;;;;;23.07;51.03;100699.47;6220496;22;54926;-77
2021/09/25 07:46:34;;;;;;;;;28.75;27.75;;;;;23.16;51.07;100708.84;6220945;22;45116;-77
2021/09/25 07:48:59;;;;;;;;;34.00;28.25;;;;;23.16;51.10;100711.50;6247844;22;45340;-76
2021/09/25 07:51:26;;;;;;;;;33.75;30.25;;;;;23.12;51.36;100687.69;6246197;22;47501;-76
2021/09/25 07:53:51;;;;;;;;;25.50;23.75;;;;;23.22;50.86;100693.47;6247541;22;45189;-76
2021/09/25 07:56:17;;;;;;;;;23.75;22.50;;;;;23.17;51.05;100684.81;6220820;22;52914;-76
2021/09/25 07:58:42;;;;;;;;;38.50;32.00;;;;;23.20;50.93;100694.47;6220722;22;45209;-75
2021/09/25 08:01:08;;;;;;;;;25.25;25.25;;;;;23.26;50.79;100705.69;6247998;22;45347;-75
2021/09/25 08:03:33;;;;;;;;;28.00;24.25;;;;;23.28;50.80;100706.53;6247146;22;56391;-76
2021/09/25 08:05:59;;;;;;;;;26.00;20.75;;;;;23.24;50.94;100698.72;6247916;22;45666;-75
2021/09/25 08:08:24;;;;;;;;;25.00;22.50;;;;;23.25;51.17;100696.00;6195170;22;45540;-75
2021/09/25 08:10:49;;;;;;;;;30.75;27.25;;;;;23.32;50.37;100697.47;6220507;22;54167;-75
2021/09/25 08:13:15;;;;;;;;;31.00;26.75;;;;;23.34;50.32;100692.91;6194775;22;62416;-75
2021/09/25 08:15:40;;;;;;;;;23.00;20.50;;;;;23.33;50.38;100687.66;6248036;22;45431;-75
2021/09/25 08:18:06;;;;;;;;;24.25;22.00;;;;;23.49;50.97;100707.38;6195363;22;45488;-75
2021/09/25 08:20:32;;;;;;;;;28.75;25.75;;;;;23.47;50.82;100695.06;6194950;22;48452;-75
2021/09/25 08:22:57;;;;;;;;;27.00;26.00;;;;;23.55;49.85;100704.44;6219972;22;51177;-75
2021/09/25 08:25:23;;;;;;;;;29.75;24.75;;;;;23.57;50.36;100710.56;6170395;22;45305;-73
2021/09/25 08:27:48;;;;;;;;;24.50;24.00;;;;;23.57;50.47;100702.56;6220525;22;50398;-75
2021/09/25 08:30:14;;;;;;;;;26.50;21.75;;;;;23.59;50.13;100706.03;6194759;22;46715;-74
2021/09/25 08:32:39;;;;;;;;;27.25;25.50;;;;;23.58;49.52;100706.94;6219949;22;45613;-75
2021/09/25 08:35:07;;;;;;;;;25.75;25.50;;;;;23.56;50.12;100703.50;6169971;22;45499;-75
2021/09/25 08:37:34;;;;;;;;;27.25;25.75;;;;;23.51;49.39;100693.97;6220229;22;45291;-74
2021/09/25 08:39:59;;;;;;;;;27.25;23.25;;;;;23.54;49.58;100699.16;6194609;22;47152;-75
2021/09/25 08:42:26;;;;;;;;;30.50;25.00;;;;;23.51;49.75;100692.16;6219446;22;62106;-76
2021/09/25 08:44:52;;;;;;;;;27.50;24.50;;;;;23.47;49.54;100682.59;6196371;22;45262;-75
2021/09/25 08:47:20;;;;;;;;;26.50;24.50;;;;;23.50;49.74;100697.56;6195018;22;45257;-75
2021/09/25 08:49:46;;;;;;;;;26.00;22.75;;;;;23.44;49.44;100697.84;6195199;22;45471;-75
2021/09/25 08:52:12;;;;;;;;;29.25;25.50;;;;;23.43;49.78;100696.97;6195100;22;45280;-75
2021/09/25 08:54:37;;;;;;;;;29.50;26.50;;;;;23.48;49.80;100700.31;6169074;22;48307;-75
2021/09/25 08:57:04;;;;;;;;;28.25;25.75;;;;;23.39;49.24;100682.06;6220061;22;53066;-75
2021/09/25 08:59:29;;;;;;;;;26.50;24.75;;;;;23.44;49.51;100698.69;6220667;22;46346;-74
2021/09/25 09:01:54;;;;;;;;;25.75;24.75;;;;;23.35;49.70;100680.47;6219823;22;51220;-75
2021/09/25 09:04:20;;;;;;;;;29.00;26.25;;;;;23.42;49.08;100696.09;6247654;22;45263;-73
2021/09/25 09:06:51;;;;;;;;;23.25;21.50;;;;;23.47;49.47;100698.59;6247734;22;45276;-74
2021/09/25 09:09:16;;;;;;;;;24.25;23.25;;;;;23.47;49.32;100701.25;6221210;22;45313;-77
2021/09/25 09:11:48;;;;;;;;;27.25;24.50;;;;;23.52;49.73;100706.34;6219841;22;45367;-74
2021/09/25 09:14:15;;;;;;;;;27.75;26.50;;;;;23.51;49.16;100702.81;6221544;22;45320;-74
2021/09/25 09:16:40;;;;;;;;;28.25;24.25;;;;;23.55;49.68;100706.22;6220560;22;45423;-74
2021/09/25 09:19:06;;;;;;;;;26.50;24.00;;;;;23.50;49.55;100697.56;6194247;22;47776;-77
2021/09/25 09:21:32;;;;;;;;;25.00;22.25;;;;;23.60;49.97;100713.09;6247416;22;45248;-72
2021/09/25 09:24:02;;;;;;;;;23.50;21.25;;;;;23.57;50.84;100704.34;6220317;22;45438;-72
2021/09/25 09:26:36;;;;;;;;;22.75;22.50;;;;;23.62;51.22;100711.22;6247114;22;45652;-75
2021/09/25 09:29:03;;;;;;;;;29.50;26.75;;;;;23.71;51.69;100706.41;6247434;22;45208;-74
2021/09/25 09:31:29;;;;;;;;;56.50;46.00;;;;;23.72;52.75;100701.03;6194786;22;45189;-74
2021/09/25 09:34:01;;;;;;;;;730.75;563.75;;;;;23.81;54.51;100702.41;6246261;22;45170;-76
2021/09/25 09:36:27;;;;;;;;;132.25;114.00;;;;;23.87;52.91;100700.31;6196651;22;45582;-78
2021/09/25 09:38:55;;;;;;;;;77.75;63.75;;;;;23.91;53.79;100693.91;6244707;22;47206;-75
2021/09/25 09:41:28;;;;;;;;;59.00;47.25;;;;;23.98;52.50;100691.84;6244821;22;45964;-74
2021/09/25 09:43:54;;;;;;;;;56.00;43.00;;;;;24.03;52.16;100689.78;6245090;22;45208;-73
2021/09/25 09:46:42;;;;;;;;;58.50;44.75;;;;;24.05;52.37;100695.91;6247145;22;45199;-71
2021/09/25 09:49:12;;;;;;;;;49.00;37.75;;;;;24.08;51.57;100679.78;6197702;22;46465;-74
2021/09/25 09:51:42;;;;;;;;;48.50;36.75;;;;;24.06;50.81;100667.44;6220445;22;45237;-74
2021/09/25 09:54:12;;;;;;;;;50.50;38.75;;;;;24.08;50.71;100666.47;6247222;22;45373;-71
2021/09/25 09:56:40;;;;;;;;;52.00;39.75;;;;;24.04;50.76;100662.19;6194568;22;45406;-74
2021/09/25 09:59:05;;;;;;;;;38.50;32.00;;;;;23.98;50.13;100659.84;6194980;22;45378;-74
2021/09/25 10:01:30;;;;;;;;;48.25;36.25;;;;;23.91;50.71;100645.06;6246625;22;53221;-76
2021/09/25 10:03:58;;;;;;;;;45.50;33.50;;;;;24.01;50.99;100674.81;6246701;22;45391;-74
2021/09/25 10:06:23;;;;;;;;;51.25;39.50;;;;;24.03;51.23;100680.94;6247684;22;45239;-81
2021/09/25 10:08:49;;;;;;;;;51.50;40.50;;;;;24.03;51.39;100676.47;6220828;22;46195;-78
2021/09/25 10:11:14;;;;;;;;;35.75;29.75;;;;;24.07;50.82;100680.72;6196492;22;45331;-77
2021/09/25 10:13:41;;;;;;;;;35.75;33.00;;;;;23.99;49.68;100660.69;6246703;22;45258;-77
2021/09/25 10:16:08;;;;;;;;;38.75;33.00;;;;;24.01;50.16;100659.69;6221126;22;45427;-77
2021/09/25 10:18:34;;;;;;;;;38.25;32.00;;;;;23.99;49.12;100663.38;6247855;22;45236;-79
2021/09/25 10:21:00;;;;;;;;;40.00;32.50;;;;;23.96;49.71;100653.69;6196047;22;45703;-78
2021/09/25 10:23:25;;;;;;;;;35.25;30.25;;;;;24.05;49.96;100677.25;6221019;22;45269;-78
2021/09/25 10:25:50;;;;;;;;;39.75;32.75;;;;;24.00;50.09;100665.09;6221624;22;45182;-79
2021/09/25 10:28:26;;;;;;;;;38.75;33.00;;;;;24.01;49.79;100666.81;6196184;22;45403;-78
2021/09/25 10:30:52;;;;;;;;;36.00;31.25;;;;;24.05;49.72;100679.91;6196485;22;45333;-81
2021/09/25 10:33:17;;;;;;;;;24.25;24.25;;;;;24.03;48.74;100668.47;6221254;22;45399;-81
2021/09/25 10:35:42;;;;;;;;;38.50;31.50;;;;;24.03;49.09;100668.47;6222176;22;45368;-80
2021/09/25 10:38:08;;;;;;;;;36.50;32.00;;;;;24.05;49.63;100681.72;6194679;22;52583;-79
2021/09/25 10:40:35;;;;;;;;;36.00;32.25;;;;;24.02;48.89;100665.88;6221326;22;45300;-74
2021/09/25 10:43:26;;;;;;;;;40.50;33.75;;;;;24.02;49.86;100664.06;6196442;22;45240;-78
2021/09/25 10:45:56;;;;;;;;;36.25;31.00;;;;;24.09;49.81;100664.66;6250285;22;45396;-75
2021/09/25 10:48:21;;;;;;;;;40.75;34.75;;;;;24.10;50.30;100656.56;6195196;22;46976;-79
2021/09/25 10:50:49;;;;;;;;;34.50;30.00;;;;;24.12;49.89;100659.16;6220685;22;45177;-78
2021/09/25 10:53:16;;;;;;;;;39.50;31.25;;;;;24.07;49.15;100648.72;6248570;22;45298;-78
2021/09/25 10:55:44;;;;;;;;;29.00;27.50;;;;;24.04;48.92;100637.34;6195390;22;45321;-78
2021/09/25 10:58:21;;;;;;;;;33.00;31.50;;;;;24.10;49.13;100640.56;6221258;22;45291;-78
2021/09/25 11:00:47;;;;;;;;;33.75;28.75;;;;;24.12;49.17;100643.16;6248278;22;45165;-78
2021/09/25 11:03:46;;;;;;;;;29.50;25.25;;;;;24.11;48.94;100634.31;6221179;22;45278;-79
2021/09/25 11:06:56;;;;;;;;;27.25;26.25;;;;;24.11;48.37;100644.97;6220411;22;45358;-77